createdAt,value
2019-02-11T00:04:20.414Z,8.22
2019-02-11T00:09:22.849Z,8.21
2019-02-11T00:14:25.282Z,8.25
2019-02-11T00:19:27.712Z,8.21
2019-02-11T00:24:30.152Z,8.18
2019-02-11T00:29:32.590Z,8.15
2019-02-11T00:34:35.027Z,8.16
2019-02-11T00:39:37.453Z,8.19
2019-02-11T00:44:39.889Z,8.16
2019-02-11T00:49:42.315Z,8.05
2019-02-11T00:54:44.750Z,8.09
2019-02-11T00:59:47.198Z,8.08
2019-02-11T01:04:49.641Z,8.09
2019-02-11T01:09:52.134Z,8.13
2019-02-11T01:14:54.571Z,8.12
2019-02-11T01:19:57.007Z,8.15
2019-02-11T01:24:59.442Z,8.13
2019-02-11T01:30:01.871Z,8.09
2019-02-11T01:35:04.306Z,8.06
2019-02-11T01:40:06.748Z,8.08
2019-02-11T01:45:09.184Z,8.11
2019-02-11T01:50:11.627Z,8.07
2019-02-11T01:55:14.107Z,8.07
2019-02-11T02:00:18.389Z,8.03
2019-02-11T02:05:20.769Z,7.98
2019-02-11T02:10:23.202Z,8.01
2019-02-11T02:15:25.647Z,7.94
2019-02-11T02:20:28.057Z,7.91
2019-02-11T02:25:30.497Z,7.91
2019-02-11T02:30:32.925Z,7.91
2019-02-11T02:35:35.360Z,7.87
2019-02-11T02:40:37.806Z,7.89
2019-02-11T02:45:40.294Z,7.89
2019-02-11T02:50:42.713Z,7.89
2019-02-11T02:55:45.138Z,7.90
2019-02-11T03:00:47.567Z,7.90
2019-02-11T03:05:49.999Z,7.88
2019-02-11T03:10:52.475Z,7.93
2019-02-11T03:15:54.893Z,7.94
2019-02-11T03:20:57.322Z,7.98
2019-02-11T03:25:59.769Z,7.97
2019-02-11T03:31:02.204Z,7.96
2019-02-11T03:36:04.628Z,7.96
2019-02-11T03:41:07.043Z,7.98
2019-02-11T03:46:09.479Z,8.02
2019-02-11T03:51:12.014Z,8.02
2019-02-11T03:56:14.439Z,8.00
2019-02-11T04:01:16.887Z,8.00
2019-02-11T04:06:19.321Z,7.98
2019-02-11T04:11:21.746Z,7.94
2019-02-11T04:16:24.177Z,7.96
2019-02-11T04:21:26.605Z,7.97
2019-02-11T04:26:29.030Z,7.92
2019-02-11T04:31:31.467Z,7.97
2019-02-11T04:36:33.920Z,7.95
2019-02-11T04:41:36.358Z,7.94
2019-02-11T04:46:38.796Z,7.93
2019-02-11T04:51:41.255Z,7.96
2019-02-11T04:56:43.682Z,7.93
2019-02-11T05:01:46.140Z,7.93
2019-02-11T05:06:48.571Z,7.93
2019-02-11T05:11:51.012Z,7.93
2019-02-11T05:16:53.449Z,7.87
2019-02-11T05:21:55.879Z,7.89
2019-02-11T05:26:58.314Z,7.90
2019-02-11T05:32:00.746Z,7.90
2019-02-11T05:37:03.191Z,7.90
2019-02-11T05:42:05.631Z,7.92
2019-02-11T05:47:08.070Z,7.94
2019-02-11T05:52:10.496Z,7.92
2019-02-11T05:57:12.931Z,7.96
2019-02-11T06:02:15.387Z,7.89
2019-02-11T06:07:17.830Z,7.90
2019-02-11T06:12:20.294Z,7.92
2019-02-11T06:17:22.744Z,7.91
2019-02-11T06:22:25.182Z,7.91
2019-02-11T06:27:27.678Z,7.93
2019-02-11T06:32:30.115Z,7.90
2019-02-11T06:37:32.559Z,7.85
2019-02-11T06:42:34.988Z,7.85
2019-02-11T06:47:37.492Z,7.77
2019-02-11T06:52:39.865Z,7.78
2019-02-11T06:57:42.305Z,7.80
2019-02-11T07:02:44.740Z,7.85
2019-02-11T07:07:47.181Z,7.82
2019-02-11T07:12:49.616Z,7.83
2019-02-11T07:17:52.076Z,7.92
2019-02-11T07:22:54.493Z,7.91
2019-02-11T07:27:56.944Z,7.93
2019-02-11T07:32:59.393Z,8.01
2019-02-11T07:38:01.834Z,8.02
2019-02-11T07:43:04.266Z,8.07
2019-02-11T07:48:06.698Z,8.11
2019-02-11T07:53:09.127Z,8.05
2019-02-11T07:58:11.552Z,8.06
2019-02-11T08:03:14.000Z,8.15
2019-02-11T08:08:16.438Z,8.27
2019-02-11T08:13:18.877Z,8.24
2019-02-11T08:18:21.324Z,8.34
2019-02-11T08:23:23.751Z,8.50
2019-02-11T08:28:26.187Z,8.72
2019-02-11T08:33:30.470Z,8.86
2019-02-11T08:38:31.088Z,8.98
2019-02-11T08:43:33.512Z,8.95
2019-02-11T08:48:35.950Z,9.00
2019-02-11T08:53:38.387Z,8.97
2019-02-11T08:58:40.846Z,9.18
2019-02-11T09:03:43.281Z,9.54
2019-02-11T09:08:45.723Z,9.75
2019-02-11T09:13:48.162Z,10.06
2019-02-11T09:18:50.672Z,11.02
2019-02-11T09:23:53.103Z,12.12
2019-02-11T09:28:55.564Z,12.69
2019-02-11T09:33:58.012Z,14.28
2019-02-11T09:39:00.464Z,13.69
2019-02-11T09:44:02.917Z,12.96
2019-02-11T09:49:05.357Z,12.79
2019-02-11T09:54:07.824Z,12.65
2019-02-11T09:59:10.299Z,12.40
2019-02-11T10:04:12.752Z,12.46
2019-02-11T10:09:15.224Z,14.01
2019-02-11T10:14:17.670Z,13.80
2019-02-11T10:19:20.112Z,13.95
2019-02-11T10:24:22.571Z,12.68
2019-02-11T10:29:25.024Z,11.72
2019-02-11T10:34:27.456Z,11.23
2019-02-11T10:39:29.915Z,11.55
2019-02-11T10:44:32.366Z,11.11
2019-02-11T10:49:34.841Z,10.63
2019-02-11T10:54:37.277Z,10.41
2019-02-11T10:59:39.706Z,10.17
2019-02-11T11:04:42.169Z,10.14
2019-02-11T11:09:44.638Z,10.15
2019-02-11T11:14:47.080Z,10.55
2019-02-11T11:19:49.515Z,10.80
2019-02-11T11:24:51.955Z,10.83
2019-02-11T11:29:54.397Z,10.35
2019-02-11T11:34:56.845Z,10.04
2019-02-11T11:39:59.279Z,10.59
2019-02-11T11:45:01.815Z,11.44
2019-02-11T11:50:04.237Z,11.23
2019-02-11T11:55:12.615Z,10.82
2019-02-11T12:00:17.781Z,10.57
2019-02-11T12:05:20.220Z,11.68
2019-02-11T12:10:22.738Z,11.61
2019-02-11T12:15:25.148Z,12.92
2019-02-11T12:20:27.584Z,12.65
2019-02-11T12:25:30.033Z,12.36
2019-02-11T12:30:32.518Z,12.36
2019-02-11T12:35:34.932Z,11.67
2019-02-11T12:40:37.357Z,11.21
2019-02-11T12:45:39.833Z,10.94
2019-02-11T12:50:42.259Z,10.61
2019-02-11T12:55:44.704Z,10.67
2019-02-11T13:00:47.157Z,10.56
2019-02-11T13:05:49.601Z,10.80
2019-02-11T13:10:52.051Z,10.78
2019-02-11T13:16:00.912Z,10.48
2019-02-11T13:20:56.950Z,10.85
2019-02-11T13:25:59.385Z,10.74
2019-02-11T13:31:01.832Z,10.92
2019-02-11T13:36:04.304Z,10.68
2019-02-11T13:41:06.729Z,10.78
2019-02-11T13:46:09.177Z,10.92
2019-02-11T13:51:11.634Z,11.20
2019-02-11T13:56:14.113Z,11.63
2019-02-11T14:01:16.568Z,11.44
2019-02-11T14:06:19.022Z,11.16
2019-02-11T14:11:21.462Z,10.47
2019-02-11T14:16:23.988Z,10.09
2019-02-11T14:21:26.339Z,10.21
2019-02-11T14:26:28.788Z,9.94
2019-02-11T14:31:31.464Z,9.80
2019-02-11T14:36:33.767Z,9.21
2019-02-11T14:41:36.249Z,9.28
2019-02-11T14:46:38.684Z,9.56
2019-02-11T14:51:41.268Z,9.32
2019-02-11T14:56:43.706Z,9.87
2019-02-11T15:01:46.181Z,10.15
2019-02-11T15:06:48.712Z,10.09
2019-02-11T15:11:51.155Z,9.67
2019-02-11T15:16:53.590Z,9.54
2019-02-11T15:21:56.020Z,9.34
2019-02-11T15:26:58.461Z,9.31
2019-02-11T15:32:01.014Z,9.24
2019-02-11T15:37:03.459Z,9.20
2019-02-11T15:42:05.883Z,9.02
2019-02-11T15:47:08.351Z,9.10
2019-02-11T15:52:10.806Z,9.05
2019-02-11T15:57:13.254Z,8.99
2019-02-11T16:02:15.695Z,8.95
2019-02-11T16:07:18.148Z,8.97
2019-02-11T16:12:20.592Z,8.89
2019-02-11T16:17:23.038Z,8.82
2019-02-11T16:22:25.490Z,8.79
2019-02-11T16:27:28.664Z,8.72
2019-02-11T16:32:30.383Z,8.69
2019-02-11T16:37:32.831Z,8.69
2019-02-11T16:42:35.276Z,8.69
2019-02-11T16:47:37.728Z,8.68
2019-02-11T16:52:40.193Z,8.67
2019-02-11T16:57:43.190Z,8.64
2019-02-11T17:02:45.632Z,8.66
2019-02-11T17:07:48.092Z,8.67
2019-02-11T17:12:50.562Z,8.57
2019-02-11T17:17:54.268Z,8.51
2019-02-11T17:22:56.702Z,8.59
2019-02-11T17:27:59.177Z,8.62
2019-02-11T17:33:01.633Z,8.67
2019-02-11T17:38:04.107Z,8.59
2019-02-11T17:43:06.583Z,8.55
2019-02-11T17:48:09.063Z,8.53
2019-02-11T17:53:11.518Z,8.53
2019-02-11T17:58:14.010Z,8.48
2019-02-11T18:03:16.466Z,8.37
2019-02-11T18:08:18.966Z,8.28
2019-02-11T18:13:21.436Z,8.19
2019-02-11T18:18:23.899Z,7.97
2019-02-11T18:23:26.313Z,7.92
2019-02-11T18:28:28.769Z,8.02
2019-02-11T18:33:31.240Z,8.00
2019-02-11T18:38:33.703Z,8.00
2019-02-11T18:43:36.158Z,8.00
2019-02-11T18:48:38.646Z,8.00
2019-02-11T18:53:41.117Z,7.91
2019-02-11T18:58:43.570Z,7.94
2019-02-11T19:03:46.043Z,7.92
2019-02-11T19:08:48.505Z,7.93
2019-02-11T19:13:52.835Z,7.74
2019-02-11T19:18:55.281Z,7.64
2019-02-11T19:23:57.714Z,7.53
2019-02-11T19:29:00.203Z,7.45
2019-02-11T19:34:02.646Z,7.33
2019-02-11T19:39:05.119Z,7.25
2019-02-11T19:44:07.604Z,7.16
2019-02-11T19:49:10.057Z,7.02
2019-02-11T19:54:12.508Z,6.90
2019-02-11T19:59:14.960Z,6.84
2019-02-11T20:04:17.416Z,6.80
2019-02-11T20:09:19.859Z,6.66
2019-02-11T20:14:22.444Z,6.56
2019-02-11T20:19:24.907Z,6.33
2019-02-11T20:24:27.388Z,6.24
2019-02-11T20:29:29.838Z,6.21
2019-02-11T20:34:32.283Z,6.17
2019-02-11T20:39:34.739Z,6.03
2019-02-11T20:44:37.733Z,5.94
2019-02-11T20:49:40.218Z,5.84
2019-02-11T20:54:42.677Z,5.75
2019-02-11T20:59:45.128Z,5.65
2019-02-11T21:04:48.015Z,5.47
2019-02-11T21:09:50.491Z,5.23
2019-02-11T21:14:52.941Z,5.00
2019-02-11T21:19:55.406Z,4.79
2019-02-11T21:24:57.875Z,4.72
2019-02-11T21:30:00.332Z,4.47
2019-02-11T21:35:02.755Z,4.50
2019-02-11T21:40:05.220Z,4.63
2019-02-11T21:45:10.378Z,4.49
2019-02-11T21:50:12.824Z,4.45
2019-02-11T21:55:20.998Z,4.49
2019-02-11T22:00:23.439Z,4.39
2019-02-11T22:05:25.996Z,4.37
2019-02-11T22:10:28.524Z,4.17
2019-02-11T22:15:30.932Z,4.12
2019-02-11T22:20:34.787Z,3.95
2019-02-11T22:25:35.848Z,4.26
2019-02-11T22:30:38.312Z,4.60
2019-02-11T22:35:40.767Z,4.48
2019-02-11T22:40:43.209Z,4.47
2019-02-11T22:45:45.652Z,4.45
2019-02-11T22:50:48.113Z,4.15
2019-02-11T22:55:50.552Z,3.88
2019-02-11T23:00:53.249Z,3.88
2019-02-11T23:05:55.687Z,3.81
2019-02-11T23:10:58.121Z,3.78
2019-02-11T23:16:00.575Z,3.89
2019-02-11T23:21:03.042Z,3.95
2019-02-11T23:26:05.498Z,3.95
2019-02-11T23:31:07.940Z,3.97
2019-02-11T23:36:10.381Z,4.06
2019-02-11T23:41:12.814Z,4.17
2019-02-11T23:46:15.249Z,4.31
2019-02-11T23:51:17.686Z,4.44
2019-02-11T23:56:20.121Z,4.49
